Time;durP1;ratioP1;P1;durP2;ratioP2;P2;SDS_P1;SDS_P2;PMS_P1;PMS_P2;Temp;Humidity;BMP_temperature;BMP_pressure;BME280_temperature;BME280_humidity;BME280_pressure;Samples;Min_cycle;Max_cycle;Signal;HPM_P1;HPM_P2
2022/11/17 00:02:23;;;;;;;;;;;7.80;99.90;;;;;;5036431;28;19920;-80
2022/11/17 00:04:49;;;;;;;;;;;7.70;99.90;;;;;;5035289;28;19927;-79
2022/11/17 00:07:14;;;;;;;;;;;7.60;99.90;;;;;;5002273;28;19921;-80
2022/11/17 00:09:40;;;;;;;;;;;8.10;99.90;;;;;;4998914;28;19921;-80
2022/11/17 00:14:50;;;;;;;;;;;7.60;99.90;;;;;;5036552;28;20008;-80
2022/11/17 00:17:16;;;;;;;;;;;7.60;99.90;;;;;;5018290;28;19967;-80
2022/11/17 00:22:28;;;;;;;;;;;7.60;99.90;;;;;;5034327;28;19947;-80
2022/11/17 00:24:54;;;;;;;;;;;7.60;99.90;;;;;;5033154;28;20015;-80
2022/11/17 00:27:19;;;;;;;;;;;7.60;99.90;;;;;;5019940;28;19975;-80
2022/11/17 00:29:45;;;;;;;;;;;7.70;99.90;;;;;;5018835;28;19943;-80
2022/11/17 00:34:56;;;;;;;;;;;7.70;99.90;;;;;;5052488;28;20479;-80
2022/11/17 00:37:21;;;;;;;;;;;8.30;99.90;;;;;;5018542;28;19920;-80
2022/11/17 00:39:47;;;;;;;;;;;7.70;99.90;;;;;;5020745;28;19972;-79
2022/11/17 00:42:13;;;;;;;;;;;7.70;99.90;;;;;;5017739;28;19927;-80
2022/11/17 00:44:38;;;;;;;;;;;7.70;99.90;;;;;;5016682;28;19978;-80
2022/11/17 00:47:04;;;;;;;;;;;7.60;99.90;;;;;;5018839;28;19920;-80
2022/11/17 00:49:29;;;;;;;;;;;7.70;99.90;;;;;;5035441;28;19920;-80
2022/11/17 00:51:56;;;;;;;;;;;7.70;99.90;;;;;;5012785;28;20378;-80
2022/11/17 00:54:22;;;;;;;;;;;7.60;99.90;;;;;;5018778;28;19921;-80
2022/11/17 00:56:48;;;;;;;;;;;7.60;99.90;;;;;;5017190;28;19944;-80
2022/11/17 00:59:13;;;;;;;;;;;7.70;99.90;;;;;;5019747;28;19963;-80
2022/11/17 01:01:39;;;;;;;;;;;7.60;99.90;;;;;;5031129;28;19932;-80
2022/11/17 01:04:05;;;;;;;;;;;7.60;99.90;;;;;;5018369;28;19921;-80
2022/11/17 01:06:32;;;;;;;;;;;7.60;99.90;;;;;;5015808;28;19928;-80
2022/11/17 01:08:59;;;;;;;;;;;7.60;99.90;;;;;;5035293;28;19920;-80
2022/11/17 01:11:25;;;;;;;;;;;7.60;99.90;;;;;;5031980;28;19925;-80
2022/11/17 01:13:52;;;;;;;;;;;7.60;99.90;;;;;;5016915;28;19922;-80
2022/11/17 01:16:18;;;;;;;;;;;7.60;99.90;;;;;;5018697;28;19920;-80
2022/11/17 01:18:44;;;;;;;;;;;7.60;99.90;;;;;;5033241;28;20585;-80
2022/11/17 01:21:15;;;;;;;;;;;7.60;99.90;;;;;;5047728;28;19924;-79
2022/11/17 01:23:42;;;;;;;;;;;7.60;99.90;;;;;;5034401;28;20383;-80
2022/11/17 01:26:09;;;;;;;;;;;7.60;99.90;;;;;;5036086;28;20012;-80
2022/11/17 01:28:35;;;;;;;;;;;7.60;99.90;;;;;;5018130;28;19920;-80
2022/11/17 01:31:02;;;;;;;;;;;7.60;99.90;;;;;;5035357;28;20343;-80
2022/11/17 01:33:28;;;;;;;;;;;7.60;99.90;;;;;;5031934;28;19921;-79
2022/11/17 01:35:53;;;;;;;;;;;7.60;99.90;;;;;;5030476;28;19928;-79
2022/11/17 01:38:19;;;;;;;;;;;7.60;99.90;;;;;;5001360;28;20003;-80
2022/11/17 01:40:44;;;;;;;;;;;7.60;99.90;;;;;;5015382;28;19928;-80
2022/11/17 01:43:10;;;;;;;;;;;7.60;99.90;;;;;;5034786;28;19931;-79
2022/11/17 01:45:36;;;;;;;;;;;7.60;99.90;;;;;;5015493;28;20259;-80
2022/11/17 01:48:04;;;;;;;;;;;7.60;99.90;;;;;;5034404;28;19921;-80
2022/11/17 01:50:34;;;;;;;;;;;7.60;99.90;;;;;;5017438;28;19979;-80
2022/11/17 01:53:03;;;;;;;;;;;7.60;99.90;;;;;;5032248;28;19921;-80
2022/11/17 01:55:41;;;;;;;;;;;7.60;99.90;;;;;;5035146;28;19986;-80
2022/11/17 01:58:16;;;;;;;;;;;7.70;99.90;;;;;;5019192;28;19921;-80
2022/11/17 02:00:42;;;;;;;;;;;7.70;99.90;;;;;;5037020;28;20009;-80
2022/11/17 02:03:08;;;;;;;;;;;7.70;99.90;;;;;;5020033;28;19971;-80
2022/11/17 02:05:40;;;;;;;;;;;7.70;99.90;;;;;;5035209;28;19932;-80
2022/11/17 02:08:05;;;;;;;;;;;8.30;99.90;;;;;;5018126;28;20325;-80
2022/11/17 02:10:33;;;;;;;;;;;7.60;99.90;;;;;;5020788;28;19920;-79
2022/11/17 02:12:59;;;;;;;;;;;7.70;99.90;;;;;;5037284;28;19929;-80
2022/11/17 02:15:25;;;;;;;;;;;7.70;99.90;;;;;;5024111;28;19921;-80
2022/11/17 02:17:51;;;;;;;;;;;7.70;99.90;;;;;;5041343;28;19928;-80
2022/11/17 02:20:21;;;;;;;;;;;7.70;99.90;;;;;;5006151;28;19929;-80
2022/11/17 02:23:06;;;;;;;;;;;7.70;99.90;;;;;;5023108;28;19928;-80
2022/11/17 02:25:55;;;;;;;;;;;7.70;99.90;;;;;;5021080;28;19921;-80
2022/11/17 02:28:27;;;;;;;;;;;7.70;99.90;;;;;;5029411;28;19916;-80
2022/11/17 02:31:12;;;;;;;;;;;7.60;99.90;;;;;;5026422;28;19920;-80
2022/11/17 02:34:02;;;;;;;;;;;7.60;99.90;;;;;;5052818;28;19924;-80
2022/11/17 02:36:31;;;;;;;;;;;7.60;99.90;;;;;;5036853;28;20420;-80
2022/11/17 02:39:07;;;;;;;;;;;7.60;99.90;;;;;;5019275;28;20418;-79
2022/11/17 02:42:06;;;;;;;;;;;7.60;99.90;;;;;;5040673;28;19924;-80
2022/11/17 02:44:51;;;;;;;;;;;7.50;99.90;;;;;;4982336;28;19960;-80
2022/11/17 02:47:35;;;;;;;;;;;7.50;99.90;;;;;;5055199;28;20007;-80
2022/11/17 02:50:03;;;;;;;;;;;7.50;99.90;;;;;;5037135;28;19925;-80
2022/11/17 02:52:29;;;;;;;;;;;7.50;99.90;;;;;;5019651;28;19968;-80
2022/11/17 02:55:06;;;;;;;;;;;7.40;99.90;;;;;;5037724;28;20433;-80
2022/11/17 02:57:35;;;;;;;;;;;7.40;99.90;;;;;;5036675;28;20012;-80
2022/11/17 03:00:03;;;;;;;;;;;7.40;99.90;;;;;;5022551;28;19925;-80
2022/11/17 03:02:39;;;;;;;;;;;7.40;99.90;;;;;;5033496;28;19920;-80
2022/11/17 03:05:10;;;;;;;;;;;7.40;99.90;;;;;;5051895;28;19921;-80
2022/11/17 03:07:55;;;;;;;;;;;7.40;99.90;;;;;;5018515;28;20012;-80
2022/11/17 03:10:39;;;;;;;;;;;7.30;99.90;;;;;;5015105;28;19921;-80
2022/11/17 03:13:09;;;;;;;;;;;7.40;99.90;;;;;;5017615;28;19927;-80
2022/11/17 03:15:38;;;;;;;;;;;7.30;99.90;;;;;;5019398;28;19920;-80
2022/11/17 03:18:03;;;;;;;;;;;7.30;99.90;;;;;;5017162;28;19921;-80
2022/11/17 03:20:33;;;;;;;;;;;7.30;99.90;;;;;;5019894;28;19925;-80
2022/11/17 03:23:03;;;;;;;;;;;7.30;99.90;;;;;;5027111;28;20277;-79
2022/11/17 03:25:31;;;;;;;;;;;7.30;99.90;;;;;;5033448;28;19921;-80
2022/11/17 03:27:59;;;;;;;;;;;7.30;99.90;;;;;;5020133;28;19960;-80
2022/11/17 03:30:25;;;;;;;;;;;7.30;99.90;;;;;;5017599;28;19967;-80
2022/11/17 03:32:54;;;;;;;;;;;7.20;99.90;;;;;;5012823;28;20331;-80
2022/11/17 03:35:22;;;;;;;;;;;7.20;99.90;;;;;;5016507;28;19996;-80
2022/11/17 03:37:50;;;;;;;;;;;7.20;99.90;;;;;;5035002;28;20282;-80
2022/11/17 03:40:18;;;;;;;;;;;7.20;99.90;;;;;;5019679;28;19925;-80
2022/11/17 03:42:45;;;;;;;;;;;7.10;99.90;;;;;;5033302;28;20003;-80
2022/11/17 03:45:19;;;;;;;;;;;7.10;99.90;;;;;;5021384;28;19921;-80
2022/11/17 03:47:45;;;;;;;;;;;7.10;99.90;;;;;;5019602;28;19921;-80
2022/11/17 03:50:13;;;;;;;;;;;7.10;99.90;;;;;;5016894;28;20012;-79
2022/11/17 03:52:40;;;;;;;;;;;7.10;99.90;;;;;;5029464;28;19925;-80
2022/11/17 03:55:06;;;;;;;;;;;7.10;99.90;;;;;;5019141;28;19928;-80
2022/11/17 03:57:37;;;;;;;;;;;7.10;99.90;;;;;;5018024;28;19927;-80
2022/11/17 04:00:05;;;;;;;;;;;7.10;99.90;;;;;;5036168;28;20011;-80
2022/11/17 04:02:31;;;;;;;;;;;7.00;99.90;;;;;;5012409;28;19970;-80
2022/11/17 04:05:06;;;;;;;;;;;7.00;99.90;;;;;;5012749;28;19928;-80
2022/11/17 04:07:32;;;;;;;;;;;7.00;99.90;;;;;;5022078;28;19925;-80
2022/11/17 04:09:58;;;;;;;;;;;7.00;99.90;;;;;;5035510;28;19927;-81
2022/11/17 04:17:53;;;;;;;;;;;6.90;99.90;;;;;;5051086;28;20018;-80
2022/11/17 04:20:19;;;;;;;;;;;6.90;99.90;;;;;;5018129;28;20304;-80
2022/11/17 04:22:44;;;;;;;;;;;6.90;99.90;;;;;;5015090;28;20020;-80
2022/11/17 04:28:35;;;;;;;;;;;6.90;99.90;;;;;;5019184;28;20340;-80
2022/11/17 04:30:40;;;;;;;;;;;7.00;99.90;;;;;;5035025;28;19928;-80
2022/11/17 04:33:05;;;;;;;;;;;7.00;99.90;;;;;;5018276;28;20294;-80
2022/11/17 04:35:31;;;;;;;;;;;7.30;99.90;;;;;;5011905;28;19921;-80
2022/11/17 04:37:56;;;;;;;;;;;6.70;99.90;;;;;;5002360;28;19968;-80
2022/11/17 04:40:22;;;;;;;;;;;6.70;99.90;;;;;;5033699;28;19932;-80
2022/11/17 04:42:47;;;;;;;;;;;6.70;99.90;;;;;;5016993;28;19921;-79
2022/11/17 04:45:13;;;;;;;;;;;6.70;99.90;;;;;;5000196;28;19921;-80
2022/11/17 04:47:39;;;;;;;;;;;6.70;99.90;;;;;;5033898;28;19921;-79
2022/11/17 04:50:04;;;;;;;;;;;6.60;99.90;;;;;;5017868;28;19927;-80
2022/11/17 04:52:30;;;;;;;;;;;6.60;99.90;;;;;;5014593;28;19936;-80
2022/11/17 04:54:55;;;;;;;;;;;6.60;99.90;;;;;;5033143;28;19928;-79
2022/11/17 04:57:21;;;;;;;;;;;6.60;99.90;;;;;;5016441;28;19921;-80
2022/11/17 04:59:47;;;;;;;;;;;6.50;99.90;;;;;;5032738;28;19925;-79
2022/11/17 05:02:12;;;;;;;;;;;6.50;99.90;;;;;;5018143;28;20286;-80
2022/11/17 05:04:56;;;;;;;;;;;6.60;99.90;;;;;;5031493;28;20009;-80
2022/11/17 05:07:23;;;;;;;;;;;6.40;99.90;;;;;;5002369;28;20525;-80
2022/11/17 05:09:48;;;;;;;;;;;6.50;99.90;;;;;;5015184;28;19924;-79
2022/11/17 05:14:58;;;;;;;;;;;6.40;99.90;;;;;;5033975;28;19944;-79
2022/11/17 05:17:24;;;;;;;;;;;6.40;99.90;;;;;;5035167;28;20346;-79
2022/11/17 05:19:49;;;;;;;;;;;6.40;99.90;;;;;;5015426;28;19947;-79
2022/11/17 05:25:01;;;;;;;;;;;6.30;99.90;;;;;;5032519;28;19925;-79
2022/11/17 05:27:26;;;;;;;;;;;6.30;99.90;;;;;;5020654;28;20408;-79
2022/11/17 05:29:52;;;;;;;;;;;6.30;99.90;;;;;;5019475;28;19920;-78
2022/11/17 05:32:17;;;;;;;;;;;6.40;99.90;;;;;;5018169;28;20389;-79
2022/11/17 05:34:43;;;;;;;;;;;6.30;99.90;;;;;;5017821;28;19921;-79
2022/11/17 05:37:09;;;;;;;;;;;6.30;99.90;;;;;;5017579;28;19951;-79
2022/11/17 05:39:34;;;;;;;;;;;6.20;99.90;;;;;;5016994;28;19920;-80
2022/11/17 05:42:00;;;;;;;;;;;6.20;99.90;;;;;;4999770;28;20305;-79
2022/11/17 05:44:25;;;;;;;;;;;6.20;99.90;;;;;;5033182;28;20024;-79
2022/11/17 05:46:51;;;;;;;;;;;6.20;99.90;;;;;;5037964;28;19921;-79
2022/11/17 05:49:16;;;;;;;;;;;6.40;99.90;;;;;;5036367;28;19927;-79
2022/11/17 05:51:42;;;;;;;;;;;6.20;99.90;;;;;;5037044;28;20443;-80
2022/11/17 05:54:07;;;;;;;;;;;6.20;99.90;;;;;;5036131;28;19925;-79
2022/11/17 05:56:33;;;;;;;;;;;6.10;99.90;;;;;;5019404;28;19971;-80
2022/11/17 05:59:02;;;;;;;;;;;6.20;99.90;;;;;;5019141;28;20304;-80
2022/11/17 06:01:28;;;;;;;;;;;6.20;99.90;;;;;;5014626;28;19972;-80
2022/11/17 06:03:55;;;;;;;;;;;6.10;99.90;;;;;;5019390;28;19921;-80
2022/11/17 06:06:20;;;;;;;;;;;6.10;99.90;;;;;;5019092;28;19990;-80
2022/11/17 06:08:46;;;;;;;;;;;6.30;99.90;;;;;;5033155;28;20406;-80
2022/11/17 06:11:12;;;;;;;;;;;6.10;99.90;;;;;;5036677;28;19921;-79
2022/11/17 06:13:38;;;;;;;;;;;6.10;99.90;;;;;;5021331;28;19979;-80
2022/11/17 06:16:05;;;;;;;;;;;6.10;99.90;;;;;;5020435;28;19960;-80
2022/11/17 06:18:34;;;;;;;;;;;6.10;99.90;;;;;;5037667;28;20012;-80
2022/11/17 06:21:00;;;;;;;;;;;6.10;99.90;;;;;;5036326;28;19932;-80
2022/11/17 06:23:27;;;;;;;;;;;6.10;99.90;;;;;;5016308;28;19932;-80
2022/11/17 06:25:53;;;;;;;;;;;6.10;99.90;;;;;;5050258;28;19928;-79
2022/11/17 06:28:20;;;;;;;;;;;6.00;99.90;;;;;;5036773;28;19920;-80
2022/11/17 06:30:46;;;;;;;;;;;6.60;99.90;;;;;;5036950;28;19928;-80
2022/11/17 06:33:13;;;;;;;;;;;6.00;99.90;;;;;;5036168;28;20282;-80
2022/11/17 06:35:39;;;;;;;;;;;6.20;99.90;;;;;;5037469;28;19975;-80
2022/11/17 06:38:04;;;;;;;;;;;6.00;99.90;;;;;;5004546;28;19920;-80
2022/11/17 06:40:30;;;;;;;;;;;6.00;99.90;;;;;;5037109;28;20301;-80
2022/11/17 06:43:11;;;;;;;;;;;6.00;99.90;;;;;;5034800;28;19921;-80
2022/11/17 06:45:40;;;;;;;;;;;6.00;99.90;;;;;;5034588;28;19947;-80
2022/11/17 06:48:06;;;;;;;;;;;6.00;99.90;;;;;;5020531;28;19925;-80
2022/11/17 06:50:32;;;;;;;;;;;6.00;99.90;;;;;;5021276;28;19927;-80
2022/11/17 06:52:58;;;;;;;;;;;6.00;99.90;;;;;;5003427;28;20285;-80
2022/11/17 06:55:24;;;;;;;;;;;6.00;99.90;;;;;;5019700;28;20016;-80
2022/11/17 06:57:50;;;;;;;;;;;6.10;99.90;;;;;;5016323;28;19929;-80
2022/11/17 07:00:17;;;;;;;;;;;6.10;99.90;;;;;;5020829;28;20270;-80
2022/11/17 07:02:43;;;;;;;;;;;6.10;99.90;;;;;;5038049;28;19927;-80
2022/11/17 07:05:09;;;;;;;;;;;6.20;99.90;;;;;;5018285;28;20007;-80
2022/11/17 07:07:34;;;;;;;;;;;6.10;99.90;;;;;;5021896;28;19921;-79
2022/11/17 07:10:00;;;;;;;;;;;6.00;99.90;;;;;;5007010;28;19921;-79
2022/11/17 07:12:25;;;;;;;;;;;6.10;99.90;;;;;;5038220;28;20002;-79
2022/11/17 07:14:51;;;;;;;;;;;6.10;99.90;;;;;;5018799;28;20019;-79
2022/11/17 07:17:16;;;;;;;;;;;6.10;99.90;;;;;;5020727;28;19921;-78
2022/11/17 07:19:42;;;;;;;;;;;6.00;99.90;;;;;;5017324;28;20025;-80
2022/11/17 07:22:07;;;;;;;;;;;6.10;99.90;;;;;;5036320;28;19932;-80
2022/11/17 07:24:33;;;;;;;;;;;6.00;99.90;;;;;;5003329;28;19931;-79
2022/11/17 07:26:59;;;;;;;;;;;6.00;99.90;;;;;;5038342;28;20008;-79
2022/11/17 07:29:24;;;;;;;;;;;6.00;99.90;;;;;;5019311;28;19990;-80
2022/11/17 07:31:50;;;;;;;;;;;6.00;99.90;;;;;;5003518;28;19929;-79
2022/11/17 07:34:15;;;;;;;;;;;6.00;99.90;;;;;;5020542;28;19921;-79
2022/11/17 07:36:41;;;;;;;;;;;6.00;99.90;;;;;;5038824;28;20012;-80
2022/11/17 07:39:07;;;;;;;;;;;6.00;99.90;;;;;;5018321;28;19925;-80
2022/11/17 07:41:32;;;;;;;;;;;6.20;99.90;;;;;;5003221;28;19936;-79
2022/11/17 07:43:58;;;;;;;;;;;6.80;99.90;;;;;;5021766;28;19967;-80
2022/11/17 07:46:23;;;;;;;;;;;6.00;99.90;;;;;;5036776;28;19921;-79
2022/11/17 07:48:51;;;;;;;;;;;6.00;99.90;;;;;;5005841;28;20023;-80
2022/11/17 07:51:17;;;;;;;;;;;6.70;99.90;;;;;;5038951;28;20380;-80
2022/11/17 07:53:42;;;;;;;;;;;6.00;99.90;;;;;;5039419;28;19921;-80
2022/11/17 07:56:09;;;;;;;;;;;6.00;99.90;;;;;;5007110;28;20447;-80
2022/11/17 07:58:36;;;;;;;;;;;6.00;99.90;;;;;;5040242;28;19928;-79
2022/11/17 08:01:05;;;;;;;;;;;6.00;99.90;;;;;;5039600;28;19925;-79
2022/11/17 08:03:31;;;;;;;;;;;6.00;99.90;;;;;;5036815;28;20441;-79
2022/11/17 08:06:01;;;;;;;;;;;6.00;99.90;;;;;;5017121;28;20004;-79
2022/11/17 08:08:27;;;;;;;;;;;6.20;99.90;;;;;;5020414;28;19931;-79
2022/11/17 08:10:52;;;;;;;;;;;6.20;99.90;;;;;;5001861;28;19996;-80
2022/11/17 08:13:18;;;;;;;;;;;6.00;99.90;;;;;;5035635;28;19921;-79
2022/11/17 08:15:44;;;;;;;;;;;6.00;99.90;;;;;;5005788;28;19920;-78
2022/11/17 08:18:09;;;;;;;;;;;6.00;99.90;;;;;;5020070;28;19921;-80
2022/11/17 08:20:35;;;;;;;;;;;6.00;99.90;;;;;;5034885;28;19929;-80
2022/11/17 08:23:01;;;;;;;;;;;6.00;99.90;;;;;;5036818;28;19928;-80
2022/11/17 08:25:26;;;;;;;;;;;6.00;99.90;;;;;;5034211;28;20469;-80
2022/11/17 08:27:56;;;;;;;;;;;6.00;99.90;;;;;;5031786;28;19925;-80
2022/11/17 08:30:22;;;;;;;;;;;6.00;99.90;;;;;;5018231;28;19920;-80
2022/11/17 08:32:50;;;;;;;;;;;6.00;99.90;;;;;;5018257;28;19927;-80
2022/11/17 08:35:16;;;;;;;;;;;6.10;99.90;;;;;;5021003;28;20147;-80
2022/11/17 08:37:41;;;;;;;;;;;6.10;99.90;;;;;;5033580;28;20513;-80
2022/11/17 08:40:07;;;;;;;;;;;6.10;99.90;;;;;;5000827;28;19928;-80
2022/11/17 08:42:33;;;;;;;;;;;6.10;99.90;;;;;;5035215;28;20373;-80
2022/11/17 08:44:59;;;;;;;;;;;6.10;99.90;;;;;;5035134;28;19921;-80
2022/11/17 08:47:24;;;;;;;;;;;6.10;99.90;;;;;;5034219;28;19921;-80
2022/11/17 08:49:50;;;;;;;;;;;6.10;99.90;;;;;;5033886;28;19920;-80
2022/11/17 08:52:16;;;;;;;;;;;6.10;99.90;;;;;;5016819;28;20357;-80
2022/11/17 08:54:41;;;;;;;;;;;6.30;99.90;;;;;;5017813;28;19974;-79
2022/11/17 08:57:07;;;;;;;;;;;7.30;99.90;;;;;;5034213;28;19928;-80
2022/11/17 08:59:32;;;;;;;;;;;6.10;99.90;;;;;;5018233;28;20037;-80
2022/11/17 09:01:58;;;;;;;;;;;6.20;99.90;;;;;;5017668;28;19925;-80
2022/11/17 09:04:23;;;;;;;;;;;6.10;99.90;;;;;;5016745;28;19975;-80
2022/11/17 09:06:49;;;;;;;;;;;6.10;99.90;;;;;;5012782;28;19920;-80
2022/11/17 09:09:14;;;;;;;;;;;6.10;99.90;;;;;;5017377;28;19927;-80
2022/11/17 09:11:40;;;;;;;;;;;6.10;99.90;;;;;;5031213;28;19964;-80
2022/11/17 09:14:06;;;;;;;;;;;6.10;99.90;;;;;;5017361;28;19925;-80
2022/11/17 09:16:32;;;;;;;;;;;6.10;99.90;;;;;;5033801;28;19927;-80
2022/11/17 09:18:57;;;;;;;;;;;6.10;99.90;;;;;;5014775;28;19959;-79
2022/11/17 09:21:24;;;;;;;;;;;6.10;99.90;;;;;;5033702;28;19931;-80
2022/11/17 09:23:50;;;;;;;;;;;6.50;99.90;;;;;;5034703;28;19926;-79
2022/11/17 09:26:16;;;;;;;;;;;6.10;99.90;;;;;;5051535;28;19983;-79
2022/11/17 09:28:43;;;;;;;;;;;6.10;99.90;;;;;;5020660;28;20464;-79
2022/11/17 09:31:13;;;;;;;;;;;6.10;99.90;;;;;;5021845;28;20259;-79
2022/11/17 09:33:38;;;;;;;;;;;6.10;99.90;;;;;;5018145;28;20401;-80
2022/11/17 09:36:06;;;;;;;;;;;6.10;99.90;;;;;;5037857;28;20015;-79
2022/11/17 09:38:32;;;;;;;;;;;6.20;99.90;;;;;;5019465;28;19921;-79
2022/11/17 09:40:57;;;;;;;;;;;6.10;99.90;;;;;;5020869;28;19959;-80
2022/11/17 09:43:27;;;;;;;;;;;6.90;99.90;;;;;;5021330;28;20011;-79
2022/11/17 09:46:13;;;;;;;;;;;6.10;99.90;;;;;;5036479;28;19920;-80
2022/11/17 09:48:40;;;;;;;;;;;6.10;99.90;;;;;;5037261;28;20352;-80
2022/11/17 09:51:08;;;;;;;;;;;6.10;99.90;;;;;;5034536;28;19975;-80
2022/11/17 09:53:34;;;;;;;;;;;6.40;99.90;;;;;;5036227;28;20282;-80
2022/11/17 09:56:01;;;;;;;;;;;6.10;99.90;;;;;;5038844;28;19921;-80
2022/11/17 09:58:36;;;;;;;;;;;6.10;99.90;;;;;;5020624;28;19989;-80
2022/11/17 10:01:01;;;;;;;;;;;6.20;99.90;;;;;;5020796;28;20375;-79
2022/11/17 10:03:31;;;;;;;;;;;6.20;99.90;;;;;;5037488;28;19936;-80
2022/11/17 10:05:57;;;;;;;;;;;6.20;99.90;;;;;;5037970;28;19980;-80
2022/11/17 10:08:31;;;;;;;;;;;6.20;99.90;;;;;;5039223;28;19964;-80
2022/11/17 10:10:56;;;;;;;;;;;6.20;99.90;;;;;;5038381;28;20381;-80
2022/11/17 10:13:34;;;;;;;;;;;6.80;99.90;;;;;;5020615;28;19924;-80
2022/11/17 10:15:59;;;;;;;;;;;6.20;99.90;;;;;;5018892;28;19932;-80
2022/11/17 10:18:26;;;;;;;;;;;6.20;99.90;;;;;;5020714;28;19925;-80
2022/11/17 10:20:51;;;;;;;;;;;6.30;99.90;;;;;;5036489;28;20390;-80
2022/11/17 10:23:18;;;;;;;;;;;6.20;99.90;;;;;;5019269;28;19921;-81
2022/11/17 10:25:47;;;;;;;;;;;6.20;99.90;;;;;;5051743;28;19925;-80
2022/11/17 10:28:22;;;;;;;;;;;6.20;99.90;;;;;;5037899;28;19921;-80
2022/11/17 10:30:52;;;;;;;;;;;6.20;99.90;;;;;;5036864;28;19931;-80
2022/11/17 10:33:30;;;;;;;;;;;6.30;99.90;;;;;;5021639;28;19921;-80
2022/11/17 10:35:56;;;;;;;;;;;6.20;99.90;;;;;;5053065;28;19920;-80
2022/11/17 10:38:23;;;;;;;;;;;6.30;99.90;;;;;;5005355;28;19920;-80
2022/11/17 10:40:50;;;;;;;;;;;6.20;99.90;;;;;;5036579;28;19925;-80
2022/11/17 10:43:23;;;;;;;;;;;6.30;99.90;;;;;;5035781;28;19928;-81
2022/11/17 10:45:50;;;;;;;;;;;6.30;99.90;;;;;;5038437;28;20377;-80
2022/11/17 10:48:32;;;;;;;;;;;6.30;99.90;;;;;;5036385;28;19921;-80
2022/11/17 10:50:59;;;;;;;;;;;6.30;99.90;;;;;;5021381;28;20336;-80
2022/11/17 10:53:24;;;;;;;;;;;6.40;99.90;;;;;;5038772;28;19974;-80
2022/11/17 10:55:55;;;;;;;;;;;6.30;99.90;;;;;;5020002;28;19924;-80
2022/11/17 10:58:24;;;;;;;;;;;6.30;99.90;;;;;;5035539;28;19927;-80
2022/11/17 11:00:51;;;;;;;;;;;6.30;99.90;;;;;;5021397;28;19956;-80
2022/11/17 11:03:19;;;;;;;;;;;6.30;99.90;;;;;;5035170;28;19925;-80
2022/11/17 11:05:53;;;;;;;;;;;6.30;99.90;;;;;;5020884;28;19990;-80
2022/11/17 11:08:24;;;;;;;;;;;6.30;99.90;;;;;;5014936;28;20015;-81
2022/11/17 11:10:51;;;;;;;;;;;6.40;99.90;;;;;;5037103;28;19920;-80
2022/11/17 11:13:20;;;;;;;;;;;6.40;99.90;;;;;;5022231;28;19940;-80
2022/11/17 11:15:46;;;;;;;;;;;6.40;99.90;;;;;;5033786;28;19963;-79
2022/11/17 11:18:12;;;;;;;;;;;6.50;99.90;;;;;;5020082;28;19927;-80
2022/11/17 11:20:42;;;;;;;;;;;6.70;99.90;;;;;;5020612;28;19925;-80
2022/11/17 11:23:21;;;;;;;;;;;6.50;99.90;;;;;;5033733;28;20016;-79
2022/11/17 11:25:50;;;;;;;;;;;6.50;99.90;;;;;;5031312;28;19929;-80
2022/11/17 11:28:34;;;;;;;;;;;6.70;99.90;;;;;;4988592;28;19929;-80
2022/11/17 11:31:12;;;;;;;;;;;6.50;99.90;;;;;;5003587;28;19948;-80
2022/11/17 11:33:40;;;;;;;;;;;6.60;99.90;;;;;;5000735;28;20021;-80
2022/11/17 11:36:24;;;;;;;;;;;7.10;99.90;;;;;;5000872;28;19921;-80
2022/11/17 11:38:56;;;;;;;;;;;6.60;99.90;;;;;;5000413;28;19957;-79
2022/11/17 11:41:37;;;;;;;;;;;6.70;99.90;;;;;;4987525;28;19926;-80
2022/11/17 11:44:03;;;;;;;;;;;6.60;99.90;;;;;;4999516;28;19943;-80
2022/11/17 11:46:37;;;;;;;;;;;6.60;99.90;;;;;;4992318;28;20678;-79
2022/11/17 11:49:09;;;;;;;;;;;6.80;99.90;;;;;;4996046;28;19925;-79
2022/11/17 11:51:36;;;;;;;;;;;6.70;99.90;;;;;;4971836;28;19972;-80
2022/11/17 11:54:08;;;;;;;;;;;6.90;99.90;;;;;;4986974;28;19960;-80
2022/11/17 11:56:44;;;;;;;;;;;6.70;99.90;;;;;;4993820;28;19925;-80
2022/11/17 11:59:17;;;;;;;;;;;6.80;99.90;;;;;;5005407;28;19925;-80
2022/11/17 12:01:49;;;;;;;;;;;6.80;99.90;;;;;;5000711;28;19925;-79
2022/11/17 12:04:25;;;;;;;;;;;6.80;99.90;;;;;;5004762;28;19921;-79
2022/11/17 12:06:52;;;;;;;;;;;6.90;99.90;;;;;;5002908;28;19944;-80
2022/11/17 12:09:30;;;;;;;;;;;7.00;99.90;;;;;;5004301;28;19956;-80
2022/11/17 12:11:59;;;;;;;;;;;6.90;99.90;;;;;;5020509;28;20007;-80
2022/11/17 12:14:25;;;;;;;;;;;7.00;99.90;;;;;;4993374;28;19936;-79
2022/11/17 12:16:58;;;;;;;;;;;7.00;99.90;;;;;;5005865;28;19921;-80
2022/11/17 12:19:43;;;;;;;;;;;7.00;99.90;;;;;;4997337;28;19921;-79
2022/11/17 12:22:23;;;;;;;;;;;7.00;99.90;;;;;;4994458;28;19971;-80
2022/11/17 12:24:54;;;;;;;;;;;7.20;99.90;;;;;;4987402;28;20007;-80
2022/11/17 12:27:49;;;;;;;;;;;7.10;99.90;;;;;;5013700;28;19964;-80
2022/11/17 12:30:33;;;;;;;;;;;7.20;99.90;;;;;;4989389;28;19921;-80
2022/11/17 12:33:03;;;;;;;;;;;7.30;99.90;;;;;;4998998;28;20000;-80
2022/11/17 12:35:30;;;;;;;;;;;7.50;99.90;;;;;;5016034;28;20441;-80
2022/11/17 12:38:14;;;;;;;;;;;7.50;99.90;;;;;;5015005;28;20026;-79
2022/11/17 12:40:42;;;;;;;;;;;7.50;99.90;;;;;;5012055;28;20404;-78
2022/11/17 12:43:13;;;;;;;;;;;7.50;99.90;;;;;;5014951;28;19931;-79
2022/11/17 12:45:52;;;;;;;;;;;7.50;99.90;;;;;;5016001;28;19929;-80
2022/11/17 12:48:19;;;;;;;;;;;7.50;99.90;;;;;;5015338;28;20436;-80
2022/11/17 12:50:52;;;;;;;;;;;7.60;99.90;;;;;;5001049;28;19920;-80
2022/11/17 12:53:34;;;;;;;;;;;7.50;99.90;;;;;;5015643;28;19929;-80
2022/11/17 12:56:11;;;;;;;;;;;7.60;99.90;;;;;;5018330;28;19925;-80
2022/11/17 12:58:58;;;;;;;;;;;7.60;99.90;;;;;;4997923;28;19921;-79
2022/11/17 13:01:38;;;;;;;;;;;7.60;99.90;;;;;;5012963;28;19925;-80
2022/11/17 13:04:25;;;;;;;;;;;7.70;99.90;;;;;;5000959;28;19928;-80
2022/11/17 13:07:01;;;;;;;;;;;7.70;99.90;;;;;;5016250;28;19921;-80
2022/11/17 13:09:32;;;;;;;;;;;7.70;99.90;;;;;;5016984;28;19928;-79
2022/11/17 13:11:59;;;;;;;;;;;7.80;99.90;;;;;;4998211;28;19948;-80
2022/11/17 13:14:24;;;;;;;;;;;7.70;99.90;;;;;;5017866;28;19921;-79
2022/11/17 13:16:50;;;;;;;;;;;7.70;99.90;;;;;;5015356;28;19928;-80
2022/11/17 13:19:42;;;;;;;;;;;7.70;99.90;;;;;;4999922;28;19948;-79
2022/11/17 13:22:12;;;;;;;;;;;7.70;99.90;;;;;;5028576;28;19932;-79
2022/11/17 13:24:39;;;;;;;;;;;7.70;99.90;;;;;;5008813;28;20007;-80
2022/11/17 13:27:06;;;;;;;;;;;7.70;99.90;;;;;;4996533;28;19972;-79
2022/11/17 13:29:32;;;;;;;;;;;7.80;99.90;;;;;;5013884;28;19921;-80
2022/11/17 13:32:15;;;;;;;;;;;7.60;99.90;;;;;;4980967;28;19976;-79
2022/11/17 13:34:51;;;;;;;;;;;7.60;99.90;;;;;;5011427;28;19917;-79
2022/11/17 13:37:19;;;;;;;;;;;7.60;99.90;;;;;;5013849;28;19924;-79
2022/11/17 13:39:58;;;;;;;;;;;7.60;99.90;;;;;;5014665;28;19921;-79
2022/11/17 13:42:24;;;;;;;;;;;7.50;99.90;;;;;;5012944;28;19925;-79
2022/11/17 13:44:52;;;;;;;;;;;7.50;99.90;;;;;;5014649;28;20467;-80
2022/11/17 13:47:26;;;;;;;;;;;7.60;99.90;;;;;;4998958;28;19929;-79
2022/11/17 13:49:51;;;;;;;;;;;7.50;99.90;;;;;;4998198;28;19921;-77
2022/11/17 13:52:32;;;;;;;;;;;7.60;99.90;;;;;;5014186;28;19929;-79
2022/11/17 13:54:58;;;;;;;;;;;7.60;99.90;;;;;;5013366;28;19981;-79
2022/11/17 13:57:27;;;;;;;;;;;7.60;99.90;;;;;;5030633;28;20366;-79
2022/11/17 13:59:54;;;;;;;;;;;7.50;99.90;;;;;;5014366;28;20454;-80
2022/11/17 14:02:19;;;;;;;;;;;7.50;99.90;;;;;;5008419;28;20382;-79
2022/11/17 14:05:03;;;;;;;;;;;7.50;99.90;;;;;;5014883;28;19928;-79
2022/11/17 14:07:30;;;;;;;;;;;7.50;99.90;;;;;;4998231;28;20022;-79
2022/11/17 14:10:14;;;;;;;;;;;7.50;99.90;;;;;;5015971;28;19928;-79
2022/11/17 14:12:40;;;;;;;;;;;7.60;99.90;;;;;;5017873;28;19921;-80
2022/11/17 14:15:23;;;;;;;;;;;7.60;99.90;;;;;;5018616;28;19921;-80
2022/11/17 14:17:49;;;;;;;;;;;7.60;99.90;;;;;;5017558;28;19921;-79
2022/11/17 14:20:29;;;;;;;;;;;7.60;99.90;;;;;;5000793;28;19925;-79
2022/11/17 14:23:07;;;;;;;;;;;7.70;99.90;;;;;;4999110;28;19921;-79
2022/11/17 14:25:40;;;;;;;;;;;7.70;99.90;;;;;;5032403;28;20282;-80
2022/11/17 14:28:12;;;;;;;;;;;7.80;99.90;;;;;;5002308;28;20197;-79
2022/11/17 14:30:38;;;;;;;;;;;7.80;99.90;;;;;;4999495;28;20369;-79
2022/11/17 14:33:03;;;;;;;;;;;7.80;99.90;;;;;;4997028;28;19921;-79
2022/11/17 14:35:29;;;;;;;;;;;7.80;99.90;;;;;;5015978;28;20259;-80
2022/11/17 14:37:55;;;;;;;;;;;7.80;99.90;;;;;;5018442;28;19943;-80
2022/11/17 14:40:20;;;;;;;;;;;7.80;99.90;;;;;;5015294;28;19933;-79
2022/11/17 14:42:46;;;;;;;;;;;7.80;99.90;;;;;;5009010;28;19980;-79
2022/11/17 14:45:13;;;;;;;;;;;7.90;99.90;;;;;;5017714;28;19972;-79
2022/11/17 14:47:39;;;;;;;;;;;7.80;99.90;;;;;;5016881;28;19960;-79
2022/11/17 14:50:06;;;;;;;;;;;7.70;99.90;;;;;;5002851;28;19921;-79
2022/11/17 14:52:31;;;;;;;;;;;7.80;99.90;;;;;;4998097;28;19930;-79
2022/11/17 14:54:57;;;;;;;;;;;7.70;99.90;;;;;;5016202;28;19968;-79
2022/11/17 14:57:23;;;;;;;;;;;7.80;99.90;;;;;;5017918;28;19927;-79
2022/11/17 14:59:49;;;;;;;;;;;7.80;99.90;;;;;;5000995;28;19929;-83
2022/11/17 15:02:14;;;;;;;;;;;7.80;99.90;;;;;;4998497;28;19921;-82
2022/11/17 15:04:40;;;;;;;;;;;7.70;99.90;;;;;;5002204;28;20358;-82